createdAt,value
2022-08-22T00:00:13.646Z,87.30
2022-08-22T00:02:53.348Z,88.10
2022-08-22T00:02:53.437Z,87.30
2022-08-22T00:02:53.534Z,85.80
2022-08-22T00:03:10.470Z,86.50
2022-08-22T00:03:10.555Z,84.70
2022-08-22T00:03:10.556Z,86.60
2022-08-22T00:06:07.182Z,86.70
2022-08-22T00:09:07.803Z,88.20
2022-08-22T00:11:50.985Z,87.40
2022-08-22T00:14:25.539Z,88.30
2022-08-22T00:17:00.092Z,88.40
2022-08-22T00:19:53.437Z,88.00
2022-08-22T00:22:22.887Z,88.00
2022-08-22T00:25:25.424Z,87.30
2022-08-22T00:28:01.874Z,86.80
2022-08-22T00:30:32.630Z,87.60
2022-08-22T00:33:03.329Z,87.70
2022-08-22T00:35:40.572Z,87.20
2022-08-22T00:38:26.944Z,87.30
2022-08-22T00:40:59.739Z,87.60
2022-08-22T00:44:00.777Z,87.00
2022-08-22T00:46:56.894Z,87.40
2022-08-22T00:49:59.359Z,87.20
2022-08-22T00:52:41.392Z,87.50
2022-08-22T00:55:37.080Z,87.80
2022-08-22T00:58:25.375Z,87.80
2022-08-22T01:01:01.836Z,88.00
2022-08-22T01:03:50.959Z,86.40
2022-08-22T01:06:37.268Z,88.00
2022-08-22T01:09:28.239Z,87.10
2022-08-22T01:12:00.636Z,87.80
2022-08-22T01:14:45.622Z,87.90
2022-08-22T01:17:50.471Z,88.20
2022-08-22T01:20:49.166Z,88.00
2022-08-22T01:23:24.837Z,88.20
2022-08-22T01:26:31.782Z,88.10
2022-08-22T01:29:28.278Z,88.30
2022-08-22T01:32:00.967Z,88.10
2022-08-22T01:35:09.192Z,87.10
2022-08-22T01:37:58.660Z,87.20
2022-08-22T01:40:47.560Z,87.90
2022-08-22T01:43:59.715Z,88.20
2022-08-22T01:46:40.649Z,88.80
2022-08-22T01:49:34.979Z,88.70
2022-08-22T01:52:44.539Z,88.10
2022-08-22T01:55:24.494Z,88.40
2022-08-22T01:58:03.891Z,87.50
2022-08-22T02:00:49.843Z,87.90
2022-08-22T02:03:25.136Z,88.30
2022-08-22T02:06:03.316Z,88.60
2022-08-22T02:08:57.911Z,88.60
2022-08-22T02:11:38.501Z,88.50
2022-08-22T02:14:37.841Z,88.20
2022-08-22T02:17:19.157Z,88.70
2022-08-22T02:19:57.296Z,88.90
2022-08-22T02:22:56.215Z,89.30
2022-08-22T02:25:32.673Z,88.20
2022-08-22T02:28:13.815Z,88.60
2022-08-22T02:31:00.712Z,89.20
2022-08-22T02:33:45.756Z,89.30
2022-08-22T02:36:34.211Z,88.50
2022-08-22T02:39:18.987Z,88.80
2022-08-22T02:41:55.535Z,87.80
2022-08-22T02:44:30.944Z,89.00
2022-08-22T02:47:35.404Z,88.10
2022-08-22T02:50:12.649Z,88.00
2022-08-22T02:52:48.421Z,88.50
2022-08-22T02:55:21.335Z,88.20
2022-08-22T02:58:08.645Z,87.90
2022-08-22T03:00:52.317Z,88.00
2022-08-22T03:03:29.973Z,88.70
2022-08-22T03:06:09.041Z,87.10
2022-08-22T03:08:42.952Z,87.40
2022-08-22T03:11:32.138Z,88.10
2022-08-22T03:14:02.664Z,88.30
2022-08-22T03:16:38.259Z,89.00
2022-08-22T03:19:18.499Z,88.70
2022-08-22T03:21:51.504Z,88.00
2022-08-22T03:24:38.770Z,88.50
2022-08-22T03:27:32.195Z,88.10
2022-08-22T03:30:10.490Z,88.60
2022-08-22T03:33:19.843Z,88.70
2022-08-22T03:35:46.487Z,88.70
2022-08-22T03:38:25.475Z,88.90
2022-08-22T03:40:54.946Z,88.70
2022-08-22T03:43:48.657Z,88.40
2022-08-22T03:46:55.020Z,88.90
2022-08-22T03:49:59.337Z,88.90
2022-08-22T03:52:29.440Z,87.80
2022-08-22T03:55:24.496Z,88.90
2022-08-22T03:58:27.711Z,88.90
2022-08-22T04:01:14.877Z,88.90
2022-08-22T04:03:56.373Z,88.60
2022-08-22T04:06:50.011Z,88.80
2022-08-22T04:09:35.303Z,88.90
2022-08-22T04:12:39.486Z,89.30
2022-08-22T04:15:34.939Z,88.20
2022-08-22T04:18:40.689Z,89.60
2022-08-22T04:21:23.195Z,89.30
2022-08-22T04:24:04.725Z,90.00
2022-08-22T04:26:43.723Z,90.20
2022-08-22T04:29:33.030Z,89.50
2022-08-22T04:32:14.596Z,90.10
2022-08-22T04:35:02.846Z,89.70
2022-08-22T04:37:52.232Z,89.40
2022-08-22T04:40:29.425Z,90.40
2022-08-22T04:43:03.831Z,90.40
2022-08-22T04:45:39.597Z,89.50
2022-08-22T04:48:16.756Z,90.30
2022-08-22T04:50:49.591Z,90.90
2022-08-22T04:53:50.516Z,90.50
2022-08-22T04:56:43.915Z,90.50
2022-08-22T04:59:18.747Z,90.70
2022-08-22T05:01:58.260Z,91.20
2022-08-22T05:04:48.601Z,90.80
2022-08-22T05:07:17.603Z,90.70
2022-08-22T05:10:00.907Z,90.20
2022-08-22T05:12:43.401Z,90.30
2022-08-22T05:15:26.378Z,90.00
2022-08-22T05:17:59.006Z,90.20
2022-08-22T05:20:28.675Z,90.10
2022-08-22T05:23:01.368Z,90.30
2022-08-22T05:25:36.915Z,90.30
2022-08-22T05:28:18.111Z,90.10
2022-08-22T05:30:48.256Z,90.60
2022-08-22T05:33:29.801Z,91.50
2022-08-22T05:36:08.924Z,91.90
2022-08-22T05:38:58.184Z,92.30
2022-08-22T05:41:28.917Z,92.40
2022-08-22T05:43:56.013Z,92.30
2022-08-22T05:46:42.931Z,92.60
2022-08-22T05:49:53.503Z,93.20
2022-08-22T05:52:26.317Z,93.80
2022-08-22T05:55:16.673Z,93.70
2022-08-22T05:57:48.637Z,94.10
2022-08-22T06:00:22.425Z,94.40
2022-08-22T06:03:30.432Z,94.00
2022-08-22T06:06:02.840Z,93.80
2022-08-22T06:08:49.375Z,92.90
2022-08-22T06:11:25.588Z,92.20
2022-08-22T06:14:25.446Z,92.10
2022-08-22T06:17:07.317Z,91.10
2022-08-22T06:19:39.425Z,90.50
2022-08-22T06:22:07.302Z,91.90
2022-08-22T06:24:37.618Z,93.60
2022-08-22T06:27:12.776Z,93.10
2022-08-22T06:29:49.321Z,92.00
2022-08-22T06:32:44.455Z,92.20
2022-08-22T06:35:22.256Z,92.00
2022-08-22T06:37:50.209Z,92.10
2022-08-22T06:40:18.607Z,92.80
2022-08-22T06:42:51.758Z,93.20
2022-08-22T06:45:31.980Z,92.90
2022-08-22T06:48:05.277Z,95.90
2022-08-22T06:50:38.487Z,94.20
2022-08-22T06:53:19.655Z,94.00
2022-08-22T06:55:56.219Z,93.60
2022-08-22T06:58:37.401Z,93.70
2022-08-22T07:01:12.678Z,92.70
2022-08-22T07:04:07.041Z,92.80
2022-08-22T07:06:38.266Z,92.30
2022-08-22T07:09:06.900Z,93.20
2022-08-22T07:11:41.635Z,93.10
2022-08-22T07:14:11.626Z,93.90
2022-08-22T07:16:59.294Z,93.20
2022-08-22T07:19:28.498Z,93.00
2022-08-22T07:21:57.292Z,93.10
2022-08-22T07:24:31.523Z,92.70
2022-08-22T07:27:19.772Z,93.70
2022-08-22T07:29:51.272Z,94.10
2022-08-22T07:32:33.352Z,93.90
2022-08-22T07:35:09.129Z,93.80
2022-08-22T07:37:45.244Z,93.00
2022-08-22T07:40:30.284Z,93.70
2022-08-22T07:43:04.450Z,93.00
2022-08-22T07:45:43.268Z,92.40
2022-08-22T07:48:25.396Z,92.10
2022-08-22T07:51:08.547Z,93.00
2022-08-22T07:53:45.977Z,91.50
2022-08-22T07:56:22.354Z,91.30
2022-08-22T07:58:56.683Z,91.10
2022-08-22T08:01:25.403Z,91.10
2022-08-22T08:04:06.632Z,92.40
2022-08-22T08:06:34.745Z,91.10
2022-08-22T08:09:02.621Z,91.20
2022-08-22T08:11:35.505Z,91.40
2022-08-22T08:14:07.390Z,91.40
2022-08-22T08:17:06.058Z,91.50
2022-08-22T08:19:40.440Z,90.50
2022-08-22T08:22:09.385Z,90.20
2022-08-22T08:24:42.593Z,90.30
2022-08-22T08:27:34.068Z,90.70
2022-08-22T08:30:19.054Z,89.60
2022-08-22T08:32:54.066Z,90.00
2022-08-22T08:36:03.269Z,90.70
2022-08-22T08:38:35.730Z,90.30
2022-08-22T08:41:29.416Z,88.90
2022-08-22T08:44:14.663Z,89.80
2022-08-22T08:47:11.991Z,90.40
2022-08-22T08:50:03.892Z,91.30
2022-08-22T08:52:52.841Z,90.00
2022-08-22T08:55:35.747Z,90.70
2022-08-22T08:58:35.402Z,90.50
2022-08-22T09:01:29.049Z,90.60
2022-08-22T09:04:17.215Z,90.40
2022-08-22T09:07:19.882Z,90.40
2022-08-22T09:10:14.893Z,91.10
2022-08-22T09:13:14.897Z,90.00
2022-08-22T09:16:04.765Z,90.30
2022-08-22T09:18:59.894Z,90.40
2022-08-22T09:21:57.725Z,89.90
2022-08-22T09:24:58.964Z,90.30
2022-08-22T09:27:51.154Z,89.90
2022-08-22T09:30:27.633Z,90.40
2022-08-22T09:33:12.575Z,90.10
2022-08-22T09:36:00.995Z,87.90
2022-08-22T09:38:55.585Z,90.10
2022-08-22T09:41:47.037Z,87.10
2022-08-22T09:44:53.776Z,87.60
2022-08-22T09:47:44.287Z,88.30
2022-08-22T09:50:20.694Z,88.60
2022-08-22T09:53:17.803Z,88.30
2022-08-22T09:55:52.865Z,87.90
2022-08-22T09:58:49.503Z,88.30
2022-08-22T10:01:18.939Z,86.90
2022-08-22T10:03:45.711Z,83.60
2022-08-22T10:06:42.077Z,83.20
2022-08-22T10:09:46.343Z,86.10
2022-08-22T10:12:19.518Z,83.00
2022-08-22T10:15:22.220Z,82.80
2022-08-22T10:18:18.472Z,83.40
2022-08-22T10:21:05.772Z,83.00
2022-08-22T10:24:11.798Z,84.60
2022-08-22T10:26:52.735Z,81.90
2022-08-22T10:29:51.224Z,83.60
2022-08-22T10:32:37.672Z,81.50
2022-08-22T10:35:34.499Z,80.00
2022-08-22T10:38:12.309Z,80.20
2022-08-22T10:40:53.425Z,82.00
2022-08-22T10:43:40.803Z,83.00
2022-08-22T10:46:14.032Z,83.10
2022-08-22T10:48:45.272Z,82.60
2022-08-22T10:51:22.336Z,82.50
2022-08-22T10:54:00.073Z,81.10
2022-08-22T10:56:30.680Z,81.40
2022-08-22T10:59:16.302Z,80.90
2022-08-22T11:02:05.041Z,84.30
2022-08-22T11:05:03.326Z,80.50
2022-08-22T11:07:56.923Z,80.20
2022-08-22T11:10:55.218Z,83.20
2022-08-22T11:13:33.790Z,78.80
2022-08-22T11:16:25.867Z,81.70
2022-08-22T11:19:15.244Z,78.90
2022-08-22T11:21:46.082Z,77.30
2022-08-22T11:24:34.694Z,77.90
2022-08-22T11:27:14.570Z,77.70
2022-08-22T11:29:53.927Z,77.80
2022-08-22T11:32:43.580Z,77.40
2022-08-22T11:35:26.913Z,77.10
2022-08-22T11:38:03.038Z,76.50
2022-08-22T11:40:58.032Z,78.00
2022-08-22T11:43:58.997Z,79.60
2022-08-22T11:46:35.390Z,78.90
2022-08-22T11:49:27.103Z,76.90
2022-08-22T11:51:57.326Z,76.90
2022-08-22T11:55:09.041Z,80.70
2022-08-22T11:57:44.356Z,81.90
2022-08-22T12:00:26.537Z,82.40
2022-08-22T12:03:23.410Z,80.90
2022-08-22T12:06:19.870Z,79.00
2022-08-22T12:08:50.881Z,81.00
2022-08-22T12:11:49.970Z,76.40
2022-08-22T12:14:26.857Z,80.20
2022-08-22T12:17:28.557Z,78.20
2022-08-22T12:20:17.084Z,77.10
2022-08-22T12:23:49.136Z,76.10
2022-08-22T12:26:32.741Z,75.50
2022-08-22T12:29:33.907Z,77.90
2022-08-22T12:32:28.350Z,79.10
2022-08-22T12:34:59.686Z,77.20
2022-08-22T12:37:53.144Z,79.40
2022-08-22T12:40:31.086Z,73.30
2022-08-22T12:43:21.812Z,74.40
2022-08-22T12:46:13.410Z,73.60
2022-08-22T12:49:05.518Z,74.80
2022-08-22T12:52:03.192Z,77.80
2022-08-22T12:55:03.214Z,78.20
2022-08-22T12:57:41.291Z,79.50
2022-08-22T13:00:22.831Z,75.60
2022-08-22T13:02:53.717Z,71.20
2022-08-22T13:05:25.688Z,71.50
2022-08-22T13:08:01.201Z,73.20
2022-08-22T13:10:52.350Z,78.70
2022-08-22T13:13:37.260Z,80.80
2022-08-22T13:16:15.566Z,79.30
2022-08-22T13:18:55.634Z,75.90
2022-08-22T13:21:40.355Z,69.60
2022-08-22T13:24:16.978Z,77.80
2022-08-22T13:26:56.170Z,70.90
2022-08-22T13:29:27.526Z,72.60
2022-08-22T13:32:07.499Z,73.50
2022-08-22T13:34:44.962Z,71.10
2022-08-22T13:37:16.396Z,76.90
2022-08-22T13:39:49.013Z,76.00
2022-08-22T13:42:30.016Z,72.90
2022-08-22T13:45:02.457Z,76.10
2022-08-22T13:47:34.818Z,71.70
2022-08-22T13:50:11.849Z,72.00
2022-08-22T13:53:00.734Z,70.50
2022-08-22T13:55:44.839Z,72.40
2022-08-22T13:58:35.586Z,75.80
2022-08-22T14:01:07.488Z,71.10
2022-08-22T14:03:49.255Z,71.80
2022-08-22T14:06:38.131Z,72.10
2022-08-22T14:09:31.245Z,72.40
2022-08-22T14:12:13.875Z,71.00
2022-08-22T14:14:46.113Z,71.10
2022-08-22T14:17:23.095Z,70.70
2022-08-22T14:20:10.990Z,75.40
2022-08-22T14:22:40.672Z,69.50
2022-08-22T14:25:17.811Z,71.50
2022-08-22T14:27:54.548Z,75.60
2022-08-22T14:30:26.390Z,70.70
2022-08-22T14:33:01.064Z,74.00
2022-08-22T14:35:37.859Z,75.60
2022-08-22T14:38:30.269Z,71.20
2022-08-22T14:41:10.051Z,71.80
2022-08-22T14:43:46.628Z,71.30
2022-08-22T14:46:21.206Z,71.10
2022-08-22T14:49:26.797Z,75.40
2022-08-22T14:52:09.979Z,71.70
2022-08-22T14:54:38.781Z,73.20
2022-08-22T14:57:20.157Z,71.00
2022-08-22T14:59:51.900Z,69.60
2022-08-22T15:02:31.526Z,68.90
2022-08-22T15:05:01.933Z,68.30
2022-08-22T15:07:36.262Z,68.50
2022-08-22T15:10:31.849Z,68.80
2022-08-22T15:13:04.961Z,73.90
2022-08-22T15:15:53.451Z,68.10
2022-08-22T15:18:28.029Z,70.90
2022-08-22T15:21:21.016Z,68.90
2022-08-22T15:23:54.369Z,69.40
2022-08-22T15:26:51.868Z,69.00
2022-08-22T15:29:27.591Z,71.50
2022-08-22T15:32:00.915Z,71.20
2022-08-22T15:34:38.381Z,68.70
2022-08-22T15:37:17.885Z,68.40
2022-08-22T15:40:27.108Z,72.10
2022-08-22T15:42:57.222Z,73.40
2022-08-22T15:45:37.401Z,68.70
2022-08-22T15:48:11.167Z,71.30
2022-08-22T15:50:58.988Z,68.20
2022-08-22T15:53:43.731Z,68.20
2022-08-22T15:56:13.281Z,69.30
2022-08-22T15:58:48.829Z,67.20
2022-08-22T16:01:24.153Z,66.50
2022-08-22T16:04:03.571Z,68.50
2022-08-22T16:06:50.521Z,66.60
2022-08-22T16:09:42.764Z,66.50
2022-08-22T16:12:24.678Z,68.40
2022-08-22T16:14:53.465Z,67.60
2022-08-22T16:17:28.987Z,67.90
2022-08-22T16:20:07.932Z,66.90
2022-08-22T16:22:56.412Z,70.00
2022-08-22T16:25:44.931Z,68.30
2022-08-22T16:28:57.903Z,67.10
2022-08-22T16:31:34.022Z,67.20
2022-08-22T16:34:18.909Z,66.60
2022-08-22T16:37:09.625Z,66.00
2022-08-22T16:39:43.288Z,66.60
2022-08-22T16:42:12.930Z,67.00
2022-08-22T16:44:46.869Z,67.00
2022-08-22T16:47:41.804Z,67.70
2022-08-22T16:50:34.003Z,66.30
2022-08-22T16:53:00.777Z,69.20
2022-08-22T16:55:30.555Z,72.80
2022-08-22T16:58:09.074Z,67.60
2022-08-22T17:00:45.903Z,68.20
2022-08-22T17:03:50.458Z,70.20
2022-08-22T17:06:32.289Z,70.50
2022-08-22T17:09:04.981Z,71.10
2022-08-22T17:11:43.780Z,71.80
2022-08-22T17:14:28.116Z,71.50
2022-08-22T17:17:21.017Z,72.00
2022-08-22T17:20:25.419Z,72.50
2022-08-22T17:23:08.116Z,73.70
2022-08-22T17:26:04.341Z,73.10
2022-08-22T17:28:48.553Z,73.10
2022-08-22T17:31:27.148Z,73.10
2022-08-22T17:34:02.514Z,73.20
2022-08-22T17:36:44.820Z,72.70
2022-08-22T17:39:55.838Z,73.00
2022-08-22T17:42:36.460Z,73.40
2022-08-22T17:45:37.116Z,75.00
2022-08-22T17:48:13.423Z,74.40
2022-08-22T17:50:46.669Z,75.50
2022-08-22T17:53:45.165Z,74.40
2022-08-22T17:56:16.383Z,74.30
2022-08-22T17:59:00.880Z,76.00
2022-08-22T18:01:44.990Z,76.70
2022-08-22T18:04:21.392Z,76.40
2022-08-22T18:06:58.334Z,76.70
2022-08-22T18:09:37.449Z,76.30
2022-08-22T18:12:34.436Z,76.30
2022-08-22T18:15:33.887Z,77.00
2022-08-22T18:18:13.002Z,77.20
2022-08-22T18:21:00.660Z,77.50
2022-08-22T18:23:39.954Z,77.60
2022-08-22T18:26:20.537Z,77.50
2022-08-22T18:29:10.956Z,77.40
2022-08-22T18:32:00.988Z,77.80
2022-08-22T18:34:42.008Z,78.00
2022-08-22T18:37:36.924Z,78.00
2022-08-22T18:40:20.178Z,78.10
2022-08-22T18:43:04.871Z,77.60
2022-08-22T18:45:46.856Z,78.50
2022-08-22T18:48:54.473Z,78.50
2022-08-22T18:51:30.709Z,78.30
2022-08-22T18:54:13.379Z,78.70
2022-08-22T18:56:59.594Z,78.90
2022-08-22T18:59:53.659Z,78.60
2022-08-22T19:02:40.269Z,78.70
2022-08-22T19:05:27.394Z,79.10
2022-08-22T19:08:03.600Z,79.40
2022-08-22T19:10:48.152Z,79.40
2022-08-22T19:13:24.972Z,80.20
2022-08-22T19:16:06.731Z,80.70
2022-08-22T19:18:40.940Z,80.40
2022-08-22T19:21:41.749Z,80.10
2022-08-22T19:24:34.694Z,80.00
2022-08-22T19:27:07.533Z,80.30
2022-08-22T19:29:34.165Z,82.00
2022-08-22T19:32:11.840Z,82.80
2022-08-22T19:34:46.934Z,84.20
2022-08-22T19:37:32.532Z,85.00
2022-08-22T19:40:11.823Z,85.00
2022-08-22T19:42:42.048Z,85.20
2022-08-22T19:45:27.134Z,85.70
2022-08-22T19:48:14.718Z,86.50
2022-08-22T19:50:43.233Z,86.70
2022-08-22T19:53:24.391Z,87.80
2022-08-22T19:56:19.950Z,87.70
2022-08-22T19:58:51.792Z,86.20
2022-08-22T20:01:33.730Z,85.90
2022-08-22T20:04:09.461Z,85.80
2022-08-22T20:06:59.023Z,85.90
2022-08-22T20:10:09.000Z,86.00
2022-08-22T20:13:05.076Z,86.00
2022-08-22T20:15:36.256Z,86.10
2022-08-22T20:18:46.470Z,86.30
2022-08-22T20:20:58.830Z,86.40
2022-08-22T20:23:30.603Z,86.40
2022-08-22T20:25:58.579Z,86.40
2022-08-22T20:28:45.710Z,86.50
2022-08-22T20:31:20.708Z,86.60
2022-08-22T20:33:52.943Z,86.60
2022-08-22T20:36:28.445Z,86.00
2022-08-22T20:39:01.748Z,86.70
2022-08-22T20:41:39.720Z,86.90
2022-08-22T20:44:37.687Z,87.00
2022-08-22T20:47:13.318Z,87.10
2022-08-22T20:50:00.633Z,86.90
2022-08-22T20:52:51.867Z,87.00
2022-08-22T20:55:31.875Z,87.00
2022-08-22T20:58:04.141Z,87.30
2022-08-22T21:00:42.109Z,87.20
2022-08-22T21:03:13.528Z,87.30
2022-08-22T21:05:45.268Z,87.40
2022-08-22T21:08:19.927Z,87.50
2022-08-22T21:11:19.714Z,87.60
2022-08-22T21:13:47.501Z,87.60
2022-08-22T21:16:32.998Z,87.60
2022-08-22T21:19:04.130Z,87.70
2022-08-22T21:21:34.488Z,87.80
2022-08-22T21:24:06.952Z,87.60
2022-08-22T21:26:39.923Z,88.10
2022-08-22T21:29:22.536Z,88.10
2022-08-22T21:32:27.688Z,89.00
2022-08-22T21:34:54.710Z,88.70
2022-08-22T21:37:38.287Z,85.70
2022-08-22T21:40:15.817Z,89.80
2022-08-22T21:42:57.507Z,89.10
2022-08-22T21:45:32.017Z,88.40
2022-08-22T21:47:59.411Z,87.80
2022-08-22T21:50:37.810Z,85.50
2022-08-22T21:53:10.205Z,89.00
2022-08-22T21:55:43.027Z,88.90
2022-08-22T21:58:35.456Z,89.00
2022-08-22T22:01:24.828Z,89.30
2022-08-22T22:03:52.004Z,89.20
2022-08-22T22:06:18.693Z,84.50
2022-08-22T22:08:45.555Z,89.70
2022-08-22T22:11:15.350Z,89.40
2022-08-22T22:13:42.496Z,89.00
2022-08-22T22:16:12.001Z,89.20
2022-08-22T22:18:39.431Z,89.10
2022-08-22T22:21:06.345Z,89.20
2022-08-22T22:23:33.084Z,88.50
2022-08-22T22:26:02.696Z,88.70
2022-08-22T22:28:37.759Z,89.10
2022-08-22T22:31:05.538Z,89.00
2022-08-22T22:33:37.893Z,89.00
2022-08-22T22:36:17.583Z,89.00
2022-08-22T22:38:44.683Z,89.00
2022-08-22T22:41:11.975Z,89.10
2022-08-22T22:43:38.672Z,89.10
2022-08-22T22:46:06.429Z,89.10
2022-08-22T22:48:33.717Z,89.20
2022-08-22T22:51:08.726Z,89.20
2022-08-22T22:53:40.225Z,89.20
2022-08-22T22:56:13.012Z,89.20
2022-08-22T22:58:40.163Z,89.20
2022-08-22T23:01:09.910Z,89.30
2022-08-22T23:03:36.856Z,89.30
2022-08-22T23:06:03.725Z,89.40
2022-08-22T23:08:30.676Z,89.40
2022-08-22T23:10:58.298Z,89.30
2022-08-22T23:13:24.959Z,89.40
2022-08-22T23:15:51.704Z,89.40
2022-08-22T23:18:18.392Z,89.40
2022-08-22T23:20:47.789Z,89.50
2022-08-22T23:23:15.809Z,89.50
2022-08-22T23:25:42.711Z,89.60
2022-08-22T23:28:09.418Z,89.60
2022-08-22T23:30:36.374Z,89.60
2022-08-22T23:33:03.050Z,89.70
2022-08-22T23:35:29.760Z,89.70
2022-08-22T23:37:56.610Z,89.90
2022-08-22T23:40:23.456Z,89.80
2022-08-22T23:42:50.204Z,89.80
2022-08-22T23:45:17.096Z,89.90
2022-08-22T23:47:43.846Z,89.80
2022-08-22T23:50:10.556Z,89.90
2022-08-22T23:52:37.442Z,89.90
2022-08-22T23:55:04.868Z,89.80
2022-08-22T23:57:33.205Z,89.90
